createdAt,value
2023-01-26T00:02:14.757Z,77.53
2023-01-26T00:07:17.975Z,77.07
2023-01-26T00:12:22.579Z,76.05
2023-01-26T00:17:28.790Z,77.19
2023-01-26T00:22:32.232Z,76.61
2023-01-26T00:27:36.935Z,75.59
2023-01-26T00:32:40.186Z,75.42
2023-01-26T00:37:43.786Z,75.37
2023-01-26T00:42:48.553Z,76.39
2023-01-26T00:47:51.821Z,77.15
2023-01-26T00:52:55.139Z,76.67
2023-01-26T00:57:59.856Z,76.38
2023-01-26T01:03:03.451Z,75.84
2023-01-26T01:08:07.056Z,75.32
2023-01-26T01:13:11.732Z,74.76
2023-01-26T01:18:15.035Z,74.71
2023-01-26T01:23:18.358Z,74.28
2023-01-26T01:28:22.975Z,75.09
2023-01-26T01:33:26.543Z,75.91
2023-01-26T01:38:29.859Z,75.38
2023-01-26T01:43:35.054Z,75.85
2023-01-26T01:48:45.839Z,75.43
2023-01-26T01:53:52.842Z,75.08
2023-01-26T01:59:01.136Z,74.86
2023-01-26T02:04:07.291Z,75.50
2023-01-26T02:09:32.502Z,75.11
2023-01-26T02:14:37.097Z,75.44
2023-01-26T02:19:50.536Z,74.90
2023-01-26T02:24:58.227Z,75.36
2023-01-26T02:30:04.275Z,75.23
2023-01-26T02:35:07.952Z,74.78
2023-01-26T02:40:18.723Z,75.74
2023-01-26T02:45:24.354Z,76.63
2023-01-26T02:50:27.619Z,77.94
2023-01-26T02:55:30.830Z,76.77
2023-01-26T03:00:37.646Z,77.40
2023-01-26T03:05:41.010Z,77.02
2023-01-26T03:10:44.607Z,78.12
2023-01-26T03:15:52.958Z,78.70
2023-01-26T03:21:13.855Z,79.05
2023-01-26T03:26:34.375Z,79.23
2023-01-26T03:31:39.123Z,78.06
2023-01-26T03:36:42.386Z,77.94
2023-01-26T03:42:02.864Z,77.01
2023-01-26T03:47:24.562Z,77.36
2023-01-26T03:52:45.205Z,76.68
2023-01-26T03:57:49.692Z,76.86
2023-01-26T04:03:11.688Z,76.36
2023-01-26T04:08:30.631Z,76.39
2023-01-26T04:13:51.425Z,75.62
2023-01-26T04:19:14.084Z,76.32
2023-01-26T04:24:17.577Z,76.92
2023-01-26T04:29:21.420Z,77.03
2023-01-26T04:34:27.061Z,77.31
2023-01-26T04:39:30.318Z,78.25
2023-01-26T04:44:33.552Z,77.40
2023-01-26T04:49:38.185Z,77.40
2023-01-26T04:54:41.776Z,78.00
2023-01-26T04:59:44.960Z,78.48
2023-01-26T05:04:49.566Z,77.80
2023-01-26T05:09:52.798Z,77.47
2023-01-26T05:14:56.015Z,77.26
2023-01-26T05:20:00.680Z,77.29
2023-01-26T05:25:03.898Z,77.91
2023-01-26T05:30:08.243Z,78.81
2023-01-26T05:35:13.073Z,79.53
2023-01-26T05:40:16.449Z,79.53
2023-01-26T05:45:19.921Z,78.86
2023-01-26T05:50:24.459Z,78.81
2023-01-26T05:55:27.735Z,79.23
2023-01-26T06:00:31.003Z,79.89
2023-01-26T06:05:35.522Z,79.98
2023-01-26T06:10:38.664Z,80.25
2023-01-26T06:15:41.801Z,80.66
2023-01-26T06:20:46.466Z,81.28
2023-01-26T06:25:49.614Z,81.56
2023-01-26T06:30:53.616Z,80.98
2023-01-26T06:35:58.213Z,81.13
2023-01-26T06:41:03.254Z,81.81
2023-01-26T06:46:07.635Z,81.61
2023-01-26T06:51:45.299Z,81.69
2023-01-26T06:56:48.488Z,80.95
2023-01-26T07:01:51.660Z,80.75
2023-01-26T07:06:56.234Z,80.92
2023-01-26T07:11:59.336Z,80.65
2023-01-26T07:17:02.889Z,80.40
2023-01-26T07:22:07.455Z,80.22
2023-01-26T07:27:10.593Z,80.22
2023-01-26T07:32:13.914Z,79.69
2023-01-26T07:37:18.468Z,79.57
2023-01-26T07:42:21.829Z,79.93
2023-01-26T07:47:25.125Z,80.29
2023-01-26T07:52:29.797Z,80.47
2023-01-26T07:57:34.155Z,80.34
2023-01-26T08:02:37.415Z,80.29
2023-01-26T08:07:42.014Z,79.55
2023-01-26T08:12:45.221Z,79.31
2023-01-26T08:17:48.443Z,78.74
2023-01-26T08:22:53.119Z,79.27
2023-01-26T08:27:56.778Z,79.39
2023-01-26T08:33:00.091Z,79.16
2023-01-26T08:38:05.937Z,78.72
2023-01-26T08:43:09.151Z,78.36
2023-01-26T08:48:12.462Z,78.59
2023-01-26T08:53:17.462Z,78.42
2023-01-26T08:58:21.803Z,78.09
2023-01-26T09:03:25.199Z,78.11
2023-01-26T09:08:29.821Z,77.28
2023-01-26T09:13:33.053Z,77.34
2023-01-26T09:18:36.766Z,76.53
2023-01-26T09:23:41.363Z,75.86
2023-01-26T09:28:44.571Z,75.77
2023-01-26T09:33:49.237Z,76.13
2023-01-26T09:38:54.332Z,75.97
2023-01-26T09:44:01.440Z,75.68
2023-01-26T09:49:08.343Z,76.23
2023-01-26T09:54:24.999Z,75.89
2023-01-26T09:59:35.296Z,75.21
2023-01-26T10:04:42.055Z,73.98
2023-01-26T10:09:50.283Z,74.03
2023-01-26T10:14:57.843Z,73.62
2023-01-26T10:20:07.705Z,73.23
2023-01-26T10:25:19.748Z,73.59
2023-01-26T10:30:23.454Z,73.52
2023-01-26T10:35:27.201Z,72.58
2023-01-26T10:40:43.475Z,71.77
2023-01-26T10:45:48.277Z,72.72
2023-01-26T10:50:52.501Z,71.19
2023-01-26T10:56:02.850Z,70.59
2023-01-26T11:01:12.589Z,70.97
2023-01-26T11:06:17.470Z,70.98
2023-01-26T11:11:27.650Z,70.71
2023-01-26T11:16:30.997Z,70.87
2023-01-26T11:21:40.473Z,70.25
2023-01-26T11:27:03.403Z,69.52
2023-01-26T11:32:17.817Z,68.54
2023-01-26T11:37:38.499Z,66.96
2023-01-26T11:42:51.250Z,65.33
2023-01-26T11:48:07.880Z,65.95
2023-01-26T11:53:24.232Z,66.20
2023-01-26T11:58:36.843Z,66.48
2023-01-26T12:03:46.709Z,65.91
2023-01-26T12:08:54.913Z,65.94
2023-01-26T12:14:08.351Z,65.76
2023-01-26T12:19:18.249Z,65.26
2023-01-26T12:25:01.130Z,65.68
2023-01-26T12:30:03.005Z,65.45
2023-01-26T12:35:06.613Z,65.59
2023-01-26T12:40:20.118Z,66.36
2023-01-26T12:45:30.120Z,66.49
2023-01-26T12:50:40.125Z,67.21
2023-01-26T12:55:47.534Z,68.50
2023-01-26T13:01:03.789Z,70.07
2023-01-26T13:06:21.160Z,71.61
2023-01-26T13:11:45.307Z,72.45
2023-01-26T13:16:49.870Z,72.40
2023-01-26T13:21:53.013Z,72.69
2023-01-26T13:26:58.089Z,72.94
2023-01-26T13:32:24.356Z,72.71
2023-01-26T13:37:35.607Z,73.42
2023-01-26T13:42:56.519Z,73.57
2023-01-26T13:48:03.421Z,74.07
2023-01-26T13:53:33.892Z,74.05
2023-01-26T13:58:37.035Z,73.83
2023-01-26T14:03:41.751Z,73.28
2023-01-26T14:08:50.909Z,73.71
2023-01-26T14:13:57.114Z,71.95
2023-01-26T14:19:16.385Z,65.29
2023-01-26T14:24:21.195Z,65.38
2023-01-26T14:29:28.895Z,63.04
2023-01-26T14:34:33.451Z,60.95
2023-01-26T14:39:36.661Z,62.04
2023-01-26T14:44:39.899Z,60.99
2023-01-26T14:49:49.408Z,62.31
2023-01-26T14:54:54.580Z,62.96
2023-01-26T15:00:00.850Z,63.15
2023-01-26T15:05:13.374Z,63.36
2023-01-26T15:10:35.396Z,62.80
2023-01-26T15:15:40.662Z,62.43
2023-01-26T15:20:50.825Z,59.93
2023-01-26T15:25:54.127Z,61.91
2023-01-26T15:30:58.266Z,63.47
2023-01-26T15:36:02.854Z,63.29
2023-01-26T15:41:10.114Z,64.46
2023-01-26T15:46:13.232Z,61.76
2023-01-26T15:51:17.816Z,60.06
2023-01-26T15:56:20.979Z,59.69
2023-01-26T16:01:24.739Z,59.38
2023-01-26T16:06:31.130Z,57.83
2023-01-26T16:11:38.472Z,58.42
2023-01-26T16:16:41.872Z,58.32
2023-01-26T16:21:46.627Z,57.85
2023-01-26T16:26:49.813Z,57.26
2023-01-26T16:31:52.981Z,57.31
2023-01-26T16:36:57.541Z,57.22
2023-01-26T16:42:00.645Z,58.10
2023-01-26T16:47:05.938Z,59.49
2023-01-26T16:52:11.335Z,59.70
2023-01-26T16:57:14.454Z,59.53
2023-01-26T17:02:26.128Z,61.12
2023-01-26T17:07:30.758Z,61.93
2023-01-26T17:12:34.200Z,63.28
2023-01-26T17:17:37.343Z,64.41
2023-01-26T17:22:41.927Z,65.41
2023-01-26T17:27:45.236Z,65.42
2023-01-26T17:32:48.352Z,65.91
2023-01-26T17:37:53.401Z,66.29
2023-01-26T17:42:56.542Z,66.33
2023-01-26T17:47:59.697Z,66.73
2023-01-26T17:53:04.384Z,67.08
2023-01-26T17:58:10.750Z,67.53
2023-01-26T18:03:13.917Z,67.83
2023-01-26T18:08:18.698Z,68.64
2023-01-26T18:13:21.916Z,69.27
2023-01-26T18:18:26.030Z,69.92
2023-01-26T18:23:30.603Z,70.41
2023-01-26T18:28:33.812Z,70.35
2023-01-26T18:33:37.532Z,70.74
2023-01-26T18:38:42.979Z,70.98
2023-01-26T18:43:48.493Z,71.36
2023-01-26T18:48:53.969Z,71.73
2023-01-26T18:53:58.786Z,73.36
2023-01-26T18:59:02.085Z,73.87
2023-01-26T19:04:07.299Z,75.38
2023-01-26T19:09:11.884Z,74.64
2023-01-26T19:14:15.407Z,75.58
2023-01-26T19:19:18.533Z,75.77
2023-01-26T19:24:23.320Z,76.36
2023-01-26T19:29:26.612Z,76.32
2023-01-26T19:34:31.314Z,76.81
2023-01-26T19:39:36.558Z,76.83
2023-01-26T19:44:39.406Z,78.22
2023-01-26T19:49:42.531Z,77.58
2023-01-26T19:54:47.053Z,78.34
2023-01-26T19:59:50.305Z,77.54
2023-01-26T20:04:53.391Z,78.05
2023-01-26T20:09:57.947Z,78.85
2023-01-26T20:15:01.098Z,78.75
2023-01-26T20:20:04.553Z,79.47
2023-01-26T20:25:12.448Z,79.77
2023-01-26T20:30:16.814Z,80.90
2023-01-26T20:35:19.955Z,81.28
2023-01-26T20:40:24.607Z,81.15
2023-01-26T20:45:27.786Z,81.64
2023-01-26T20:50:36.190Z,81.15
2023-01-26T20:55:40.708Z,82.32
2023-01-26T21:00:43.869Z,81.78
2023-01-26T21:05:46.999Z,81.18
2023-01-26T21:10:51.676Z,81.30
2023-01-26T21:15:56.271Z,80.32
2023-01-26T21:21:01.255Z,80.20
2023-01-26T21:26:07.487Z,79.89
2023-01-26T21:31:12.502Z,80.88
2023-01-26T21:36:19.005Z,81.62
2023-01-26T21:41:43.671Z,81.11
2023-01-26T21:46:48.357Z,81.37
2023-01-26T21:52:09.239Z,81.79
2023-01-26T21:57:33.599Z,81.97
2023-01-26T22:02:37.045Z,81.46
2023-01-26T22:07:40.355Z,80.92
2023-01-26T22:12:44.985Z,80.70
2023-01-26T22:17:48.224Z,80.26
2023-01-26T22:22:51.499Z,80.55
2023-01-26T22:27:56.063Z,81.27
2023-01-26T22:32:59.279Z,81.75
2023-01-26T22:38:02.587Z,81.25
2023-01-26T22:43:08.919Z,81.33
2023-01-26T22:48:12.161Z,81.93
2023-01-26T22:53:15.475Z,81.32
2023-01-26T22:58:20.417Z,80.78
2023-01-26T23:03:25.755Z,81.81
2023-01-26T23:08:29.296Z,82.17
2023-01-26T23:13:34.278Z,81.15
2023-01-26T23:18:38.346Z,80.86
2023-01-26T23:23:42.284Z,80.48
2023-01-26T23:28:46.922Z,81.08
2023-01-26T23:33:50.248Z,80.46
2023-01-26T23:38:54.415Z,80.04
2023-01-26T23:43:59.044Z,79.96
2023-01-26T23:49:02.278Z,80.01
2023-01-26T23:54:05.609Z,80.99
2023-01-26T23:59:10.293Z,80.94
